sensor_id;sensor_type;location;lat;lon;timestamp;temperature;humidity
4840;DHT22;2434;48.486;7.964;2024-03-02T00:00:50;7.50;54.40
4840;DHT22;2434;48.486;7.964;2024-03-02T00:03:19;7.40;54.00
4840;DHT22;2434;48.486;7.964;2024-03-02T00:05:51;7.40;53.70
4840;DHT22;2434;48.486;7.964;2024-03-02T00:08:23;7.40;53.70
4840;DHT22;2434;48.486;7.964;2024-03-02T00:10:52;7.40;53.50
4840;DHT22;2434;48.486;7.964;2024-03-02T00:13:25;7.40;53.40
4840;DHT22;2434;48.486;7.964;2024-03-02T00:15:54;7.30;53.30
4840;DHT22;2434;48.486;7.964;2024-03-02T00:18:26;7.30;53.30
4840;DHT22;2434;48.486;7.964;2024-03-02T00:20:56;7.30;53.50
4840;DHT22;2434;48.486;7.964;2024-03-02T00:23:27;7.20;53.10
4840;DHT22;2434;48.486;7.964;2024-03-02T00:25:55;7.10;52.80
4840;DHT22;2434;48.486;7.964;2024-03-02T00:28:24;7.10;52.90
4840;DHT22;2434;48.486;7.964;2024-03-02T00:30:57;7.10;53.10
4840;DHT22;2434;48.486;7.964;2024-03-02T00:33:27;7.00;52.80
4840;DHT22;2434;48.486;7.964;2024-03-02T00:35:57;6.90;53.10
4840;DHT22;2434;48.486;7.964;2024-03-02T00:38:27;6.80;53.50
4840;DHT22;2434;48.486;7.964;2024-03-02T00:40:56;6.80;53.40
4840;DHT22;2434;48.486;7.964;2024-03-02T00:43:44;6.80;53.40
4840;DHT22;2434;48.486;7.964;2024-03-02T00:46:18;6.70;53.60
4840;DHT22;2434;48.486;7.964;2024-03-02T00:48:51;6.60;53.70
4840;DHT22;2434;48.486;7.964;2024-03-02T00:51:24;6.50;54.70
4840;DHT22;2434;48.486;7.964;2024-03-02T00:53:53;6.40;56.50
4840;DHT22;2434;48.486;7.964;2024-03-02T00:56:23;6.40;57.50
4840;DHT22;2434;48.486;7.964;2024-03-02T00:58:52;6.30;58.10
4840;DHT22;2434;48.486;7.964;2024-03-02T01:01:20;6.40;58.10
4840;DHT22;2434;48.486;7.964;2024-03-02T01:03:49;6.40;57.70
4840;DHT22;2434;48.486;7.964;2024-03-02T01:06:17;6.40;57.60
4840;DHT22;2434;48.486;7.964;2024-03-02T01:08:47;6.40;57.60
4840;DHT22;2434;48.486;7.964;2024-03-02T01:11:18;6.40;57.50
4840;DHT22;2434;48.486;7.964;2024-03-02T01:13:49;6.50;57.60
4840;DHT22;2434;48.486;7.964;2024-03-02T01:16:18;6.50;57.30
4840;DHT22;2434;48.486;7.964;2024-03-02T01:18:46;6.50;57.00
4840;DHT22;2434;48.486;7.964;2024-03-02T01:21:15;6.50;56.80
4840;DHT22;2434;48.486;7.964;2024-03-02T01:23:43;6.50;56.80
4840;DHT22;2434;48.486;7.964;2024-03-02T01:26:12;6.50;56.60
4840;DHT22;2434;48.486;7.964;2024-03-02T01:28:41;6.50;56.20
4840;DHT22;2434;48.486;7.964;2024-03-02T01:31:08;6.50;56.10
4840;DHT22;2434;48.486;7.964;2024-03-02T01:33:36;6.50;55.80
4840;DHT22;2434;48.486;7.964;2024-03-02T01:36:05;6.50;55.80
4840;DHT22;2434;48.486;7.964;2024-03-02T01:38:35;6.50;55.50
4840;DHT22;2434;48.486;7.964;2024-03-02T01:41:03;6.40;55.40
4840;DHT22;2434;48.486;7.964;2024-03-02T01:43:32;6.40;55.40
4840;DHT22;2434;48.486;7.964;2024-03-02T01:46:02;6.40;55.70
4840;DHT22;2434;48.486;7.964;2024-03-02T01:48:31;6.40;55.50
4840;DHT22;2434;48.486;7.964;2024-03-02T01:50:59;6.30;55.30
4840;DHT22;2434;48.486;7.964;2024-03-02T01:53:28;6.30;55.50
4840;DHT22;2434;48.486;7.964;2024-03-02T01:55:56;6.30;55.50
4840;DHT22;2434;48.486;7.964;2024-03-02T01:58:24;6.20;55.60
4840;DHT22;2434;48.486;7.964;2024-03-02T02:00:53;6.20;55.60
4840;DHT22;2434;48.486;7.964;2024-03-02T02:03:21;6.10;55.80
4840;DHT22;2434;48.486;7.964;2024-03-02T02:05:49;6.10;56.00
4840;DHT22;2434;48.486;7.964;2024-03-02T02:08:17;6.10;55.90
4840;DHT22;2434;48.486;7.964;2024-03-02T02:10:46;6.10;56.00
4840;DHT22;2434;48.486;7.964;2024-03-02T02:13:14;6.00;56.70
4840;DHT22;2434;48.486;7.964;2024-03-02T02:15:42;6.00;56.00
4840;DHT22;2434;48.486;7.964;2024-03-02T02:18:11;6.00;56.20
4840;DHT22;2434;48.486;7.964;2024-03-02T02:20:39;5.90;56.70
4840;DHT22;2434;48.486;7.964;2024-03-02T02:23:08;5.90;56.80
4840;DHT22;2434;48.486;7.964;2024-03-02T02:25:37;5.80;56.90
4840;DHT22;2434;48.486;7.964;2024-03-02T02:28:05;5.90;57.00
4840;DHT22;2434;48.486;7.964;2024-03-02T02:30:33;5.80;56.60
4840;DHT22;2434;48.486;7.964;2024-03-02T02:33:01;5.80;55.90
4840;DHT22;2434;48.486;7.964;2024-03-02T02:35:29;5.60;55.80
4840;DHT22;2434;48.486;7.964;2024-03-02T02:37:57;5.60;56.20
4840;DHT22;2434;48.486;7.964;2024-03-02T02:40:27;5.50;56.30
4840;DHT22;2434;48.486;7.964;2024-03-02T02:42:57;5.50;56.20
4840;DHT22;2434;48.486;7.964;2024-03-02T02:45:26;5.50;56.40
4840;DHT22;2434;48.486;7.964;2024-03-02T02:47:54;5.50;56.70
4840;DHT22;2434;48.486;7.964;2024-03-02T02:50:22;5.40;56.60
4840;DHT22;2434;48.486;7.964;2024-03-02T02:52:50;5.40;56.60
4840;DHT22;2434;48.486;7.964;2024-03-02T02:55:18;5.40;56.60
4840;DHT22;2434;48.486;7.964;2024-03-02T02:57:47;5.40;56.70
4840;DHT22;2434;48.486;7.964;2024-03-02T03:00:16;5.30;56.80
4840;DHT22;2434;48.486;7.964;2024-03-02T03:02:48;5.30;57.30
4840;DHT22;2434;48.486;7.964;2024-03-02T03:05:18;5.30;57.70
4840;DHT22;2434;48.486;7.964;2024-03-02T03:07:46;5.30;57.70
4840;DHT22;2434;48.486;7.964;2024-03-02T03:10:16;5.20;57.70
4840;DHT22;2434;48.486;7.964;2024-03-02T03:12:46;5.20;57.80
4840;DHT22;2434;48.486;7.964;2024-03-02T03:15:15;5.20;58.20
4840;DHT22;2434;48.486;7.964;2024-03-02T03:17:44;5.10;58.50
4840;DHT22;2434;48.486;7.964;2024-03-02T03:20:14;5.10;58.50
4840;DHT22;2434;48.486;7.964;2024-03-02T03:22:42;5.10;58.80
4840;DHT22;2434;48.486;7.964;2024-03-02T03:25:10;5.10;58.90
4840;DHT22;2434;48.486;7.964;2024-03-02T03:27:39;5.10;58.50
4840;DHT22;2434;48.486;7.964;2024-03-02T03:30:10;5.00;58.40
4840;DHT22;2434;48.486;7.964;2024-03-02T03:32:38;5.00;58.30
4840;DHT22;2434;48.486;7.964;2024-03-02T03:35:07;5.00;58.50
4840;DHT22;2434;48.486;7.964;2024-03-02T03:37:35;5.00;58.30
4840;DHT22;2434;48.486;7.964;2024-03-02T03:40:04;4.90;58.70
4840;DHT22;2434;48.486;7.964;2024-03-02T03:42:37;4.90;58.90
4840;DHT22;2434;48.486;7.964;2024-03-02T03:45:06;4.90;59.00
4840;DHT22;2434;48.486;7.964;2024-03-02T03:47:35;4.90;59.50
4840;DHT22;2434;48.486;7.964;2024-03-02T03:50:05;4.80;59.60
4840;DHT22;2434;48.486;7.964;2024-03-02T03:52:34;4.80;60.00
4840;DHT22;2434;48.486;7.964;2024-03-02T03:55:02;4.70;60.20
4840;DHT22;2434;48.486;7.964;2024-03-02T03:57:30;4.80;60.20
4840;DHT22;2434;48.486;7.964;2024-03-02T03:59:58;4.80;60.10
4840;DHT22;2434;48.486;7.964;2024-03-02T04:02:27;4.80;60.50
4840;DHT22;2434;48.486;7.964;2024-03-02T04:04:56;4.80;60.20
4840;DHT22;2434;48.486;7.964;2024-03-02T04:07:24;4.80;59.40
4840;DHT22;2434;48.486;7.964;2024-03-02T04:09:52;4.70;58.50
4840;DHT22;2434;48.486;7.964;2024-03-02T04:12:20;4.70;58.70
4840;DHT22;2434;48.486;7.964;2024-03-02T04:14:49;4.60;59.40
4840;DHT22;2434;48.486;7.964;2024-03-02T04:17:17;4.50;59.70
4840;DHT22;2434;48.486;7.964;2024-03-02T04:19:45;4.50;59.90
4840;DHT22;2434;48.486;7.964;2024-03-02T04:22:14;4.50;60.10
4840;DHT22;2434;48.486;7.964;2024-03-02T04:24:51;4.50;60.40
4840;DHT22;2434;48.486;7.964;2024-03-02T04:27:19;4.50;60.50
4840;DHT22;2434;48.486;7.964;2024-03-02T04:29:47;4.50;60.90
4840;DHT22;2434;48.486;7.964;2024-03-02T04:32:15;4.50;60.10
4840;DHT22;2434;48.486;7.964;2024-03-02T04:34:43;4.40;60.40
4840;DHT22;2434;48.486;7.964;2024-03-02T04:37:11;4.30;60.80
4840;DHT22;2434;48.486;7.964;2024-03-02T04:39:42;4.30;61.50
4840;DHT22;2434;48.486;7.964;2024-03-02T04:42:10;4.20;63.20
4840;DHT22;2434;48.486;7.964;2024-03-02T04:44:38;4.20;63.70
4840;DHT22;2434;48.486;7.964;2024-03-02T04:47:06;4.20;63.60
4840;DHT22;2434;48.486;7.964;2024-03-02T04:49:34;4.20;63.50
4840;DHT22;2434;48.486;7.964;2024-03-02T04:52:02;4.30;63.90
4840;DHT22;2434;48.486;7.964;2024-03-02T04:54:31;4.30;63.90
4840;DHT22;2434;48.486;7.964;2024-03-02T04:57:00;4.30;64.10
4840;DHT22;2434;48.486;7.964;2024-03-02T04:59:28;4.30;64.00
4840;DHT22;2434;48.486;7.964;2024-03-02T05:01:56;4.30;63.30
4840;DHT22;2434;48.486;7.964;2024-03-02T05:04:25;4.30;62.20
4840;DHT22;2434;48.486;7.964;2024-03-02T05:06:53;4.30;62.50
4840;DHT22;2434;48.486;7.964;2024-03-02T05:09:23;4.20;62.90
4840;DHT22;2434;48.486;7.964;2024-03-02T05:11:51;4.30;63.10
4840;DHT22;2434;48.486;7.964;2024-03-02T05:14:51;4.30;63.20
4840;DHT22;2434;48.486;7.964;2024-03-02T05:17:18;4.30;63.30
4840;DHT22;2434;48.486;7.964;2024-03-02T05:19:46;4.20;63.40
4840;DHT22;2434;48.486;7.964;2024-03-02T05:22:14;4.20;63.70
4840;DHT22;2434;48.486;7.964;2024-03-02T05:24:43;4.20;63.70
4840;DHT22;2434;48.486;7.964;2024-03-02T05:27:11;4.20;63.90
4840;DHT22;2434;48.486;7.964;2024-03-02T05:29:39;4.10;64.20
4840;DHT22;2434;48.486;7.964;2024-03-02T05:32:08;4.10;64.20
4840;DHT22;2434;48.486;7.964;2024-03-02T05:34:36;4.10;64.20
4840;DHT22;2434;48.486;7.964;2024-03-02T05:37:05;4.20;64.00
4840;DHT22;2434;48.486;7.964;2024-03-02T05:39:32;4.20;63.60
4840;DHT22;2434;48.486;7.964;2024-03-02T05:42:00;4.20;62.60
4840;DHT22;2434;48.486;7.964;2024-03-02T05:44:29;4.10;61.80
4840;DHT22;2434;48.486;7.964;2024-03-02T05:46:58;4.00;61.90
4840;DHT22;2434;48.486;7.964;2024-03-02T05:49:28;4.00;62.70
4840;DHT22;2434;48.486;7.964;2024-03-02T05:51:56;4.00;63.00
4840;DHT22;2434;48.486;7.964;2024-03-02T05:54:24;4.00;63.30
4840;DHT22;2434;48.486;7.964;2024-03-02T05:56:52;3.90;63.70
4840;DHT22;2434;48.486;7.964;2024-03-02T05:59:20;3.90;64.00
4840;DHT22;2434;48.486;7.964;2024-03-02T06:01:49;3.90;64.40
4840;DHT22;2434;48.486;7.964;2024-03-02T06:04:17;3.90;64.70
4840;DHT22;2434;48.486;7.964;2024-03-02T06:06:47;3.80;64.90
4840;DHT22;2434;48.486;7.964;2024-03-02T06:09:16;3.80;65.90
4840;DHT22;2434;48.486;7.964;2024-03-02T06:11:46;3.80;66.40
4840;DHT22;2434;48.486;7.964;2024-03-02T06:14:14;3.80;66.80
4840;DHT22;2434;48.486;7.964;2024-03-02T06:16:42;3.80;67.70
4840;DHT22;2434;48.486;7.964;2024-03-02T06:19:10;3.80;68.00
4840;DHT22;2434;48.486;7.964;2024-03-02T06:21:38;3.80;68.50
4840;DHT22;2434;48.486;7.964;2024-03-02T06:24:08;3.80;67.50
4840;DHT22;2434;48.486;7.964;2024-03-02T06:26:36;3.90;67.40
4840;DHT22;2434;48.486;7.964;2024-03-02T06:29:04;3.90;66.50
4840;DHT22;2434;48.486;7.964;2024-03-02T06:31:32;3.90;66.40
4840;DHT22;2434;48.486;7.964;2024-03-02T06:34:00;3.80;66.40
4840;DHT22;2434;48.486;7.964;2024-03-02T06:36:30;3.80;67.00
4840;DHT22;2434;48.486;7.964;2024-03-02T06:38:58;3.80;67.50
4840;DHT22;2434;48.486;7.964;2024-03-02T06:41:28;3.80;67.70
4840;DHT22;2434;48.486;7.964;2024-03-02T06:43:55;3.80;68.20
4840;DHT22;2434;48.486;7.964;2024-03-02T06:46:27;3.90;68.50
4840;DHT22;2434;48.486;7.964;2024-03-02T06:48:55;3.90;68.60
4840;DHT22;2434;48.486;7.964;2024-03-02T06:51:23;3.90;68.80
4840;DHT22;2434;48.486;7.964;2024-03-02T06:53:51;3.90;68.70
4840;DHT22;2434;48.486;7.964;2024-03-02T06:56:19;4.00;68.50
4840;DHT22;2434;48.486;7.964;2024-03-02T06:58:48;4.00;68.70
4840;DHT22;2434;48.486;7.964;2024-03-02T07:01:16;4.00;68.90
4840;DHT22;2434;48.486;7.964;2024-03-02T07:03:44;4.00;69.50
4840;DHT22;2434;48.486;7.964;2024-03-02T07:06:12;4.00;69.70
4840;DHT22;2434;48.486;7.964;2024-03-02T07:08:40;4.10;70.10
4840;DHT22;2434;48.486;7.964;2024-03-02T07:11:08;4.10;70.50
4840;DHT22;2434;48.486;7.964;2024-03-02T07:13:36;4.10;70.70
4840;DHT22;2434;48.486;7.964;2024-03-02T07:16:06;4.10;71.10
4840;DHT22;2434;48.486;7.964;2024-03-02T07:18:51;4.20;71.50
4840;DHT22;2434;48.486;7.964;2024-03-02T07:21:19;4.20;71.70
4840;DHT22;2434;48.486;7.964;2024-03-02T07:23:49;4.20;72.20
4840;DHT22;2434;48.486;7.964;2024-03-02T07:26:17;4.30;72.70
4840;DHT22;2434;48.486;7.964;2024-03-02T07:28:49;4.30;72.70
4840;DHT22;2434;48.486;7.964;2024-03-02T07:31:18;4.30;72.60
4840;DHT22;2434;48.486;7.964;2024-03-02T07:33:46;4.40;72.30
4840;DHT22;2434;48.486;7.964;2024-03-02T07:36:14;4.40;72.20
4840;DHT22;2434;48.486;7.964;2024-03-02T07:38:43;4.40;71.80
4840;DHT22;2434;48.486;7.964;2024-03-02T07:41:12;4.50;71.50
4840;DHT22;2434;48.486;7.964;2024-03-02T07:43:40;4.50;71.40
4840;DHT22;2434;48.486;7.964;2024-03-02T07:46:08;4.50;71.60
4840;DHT22;2434;48.486;7.964;2024-03-02T07:48:37;4.50;71.90
4840;DHT22;2434;48.486;7.964;2024-03-02T07:51:06;4.60;72.20
4840;DHT22;2434;48.486;7.964;2024-03-02T07:53:33;4.60;72.60
4840;DHT22;2434;48.486;7.964;2024-03-02T07:56:04;4.60;72.90
4840;DHT22;2434;48.486;7.964;2024-03-02T07:58:33;4.70;73.30
4840;DHT22;2434;48.486;7.964;2024-03-02T08:01:02;4.70;73.50
4840;DHT22;2434;48.486;7.964;2024-03-02T08:03:30;4.80;73.70
4840;DHT22;2434;48.486;7.964;2024-03-02T08:06:00;4.80;73.90
4840;DHT22;2434;48.486;7.964;2024-03-02T08:08:28;4.80;74.10
4840;DHT22;2434;48.486;7.964;2024-03-02T08:10:56;4.90;74.50
4840;DHT22;2434;48.486;7.964;2024-03-02T08:13:27;4.90;75.00
4840;DHT22;2434;48.486;7.964;2024-03-02T08:15:55;5.00;75.00
4840;DHT22;2434;48.486;7.964;2024-03-02T08:18:24;5.00;74.90
4840;DHT22;2434;48.486;7.964;2024-03-02T08:20:52;5.10;75.00
4840;DHT22;2434;48.486;7.964;2024-03-02T08:23:21;5.10;74.70
4840;DHT22;2434;48.486;7.964;2024-03-02T08:25:49;5.20;74.20
4840;DHT22;2434;48.486;7.964;2024-03-02T08:28:17;5.20;74.00
4840;DHT22;2434;48.486;7.964;2024-03-02T08:30:46;5.30;74.20
4840;DHT22;2434;48.486;7.964;2024-03-02T08:33:14;5.40;74.20
4840;DHT22;2434;48.486;7.964;2024-03-02T08:35:42;5.40;74.20
4840;DHT22;2434;48.486;7.964;2024-03-02T08:38:11;5.50;74.10
4840;DHT22;2434;48.486;7.964;2024-03-02T08:40:40;5.60;73.90
4840;DHT22;2434;48.486;7.964;2024-03-02T08:43:08;5.70;74.00
4840;DHT22;2434;48.486;7.964;2024-03-02T08:45:36;5.80;74.60
4840;DHT22;2434;48.486;7.964;2024-03-02T08:48:07;5.90;75.00
4840;DHT22;2434;48.486;7.964;2024-03-02T08:50:35;6.00;76.00
4840;DHT22;2434;48.486;7.964;2024-03-02T08:53:03;6.10;75.50
4840;DHT22;2434;48.486;7.964;2024-03-02T08:55:32;6.20;75.40
4840;DHT22;2434;48.486;7.964;2024-03-02T08:58:01;6.30;75.20
4840;DHT22;2434;48.486;7.964;2024-03-02T09:00:30;6.40;74.80
4840;DHT22;2434;48.486;7.964;2024-03-02T09:02:58;6.50;74.70
4840;DHT22;2434;48.486;7.964;2024-03-02T09:05:26;6.70;75.00
4840;DHT22;2434;48.486;7.964;2024-03-02T09:07:54;6.90;76.40
4840;DHT22;2434;48.486;7.964;2024-03-02T09:10:23;7.20;76.50
4840;DHT22;2434;48.486;7.964;2024-03-02T09:12:54;7.40;75.80
4840;DHT22;2434;48.486;7.964;2024-03-02T09:15:23;7.60;74.30
4840;DHT22;2434;48.486;7.964;2024-03-02T09:17:52;7.60;72.60
4840;DHT22;2434;48.486;7.964;2024-03-02T09:20:20;7.80;72.00
4840;DHT22;2434;48.486;7.964;2024-03-02T09:22:48;7.90;72.80
4840;DHT22;2434;48.486;7.964;2024-03-02T09:25:16;8.00;70.70
4840;DHT22;2434;48.486;7.964;2024-03-02T09:27:44;8.20;69.90
4840;DHT22;2434;48.486;7.964;2024-03-02T09:30:12;8.20;69.50
4840;DHT22;2434;48.486;7.964;2024-03-02T09:32:43;8.90;70.40
4840;DHT22;2434;48.486;7.964;2024-03-02T09:35:13;9.30;58.50
4840;DHT22;2434;48.486;7.964;2024-03-02T09:37:40;9.90;54.60
4840;DHT22;2434;48.486;7.964;2024-03-02T09:40:10;10.40;52.70
4840;DHT22;2434;48.486;7.964;2024-03-02T09:42:38;10.80;53.80
4840;DHT22;2434;48.486;7.964;2024-03-02T09:45:07;10.70;52.40
4840;DHT22;2434;48.486;7.964;2024-03-02T09:47:35;10.70;51.30
4840;DHT22;2434;48.486;7.964;2024-03-02T09:50:06;10.90;47.00
4840;DHT22;2434;48.486;7.964;2024-03-02T09:52:35;11.10;47.10
4840;DHT22;2434;48.486;7.964;2024-03-02T09:55:04;11.60;48.60
4840;DHT22;2434;48.486;7.964;2024-03-02T09:57:33;11.90;41.90
4840;DHT22;2434;48.486;7.964;2024-03-02T10:00:03;12.10;43.30
4840;DHT22;2434;48.486;7.964;2024-03-02T10:02:31;12.10;42.50
4840;DHT22;2434;48.486;7.964;2024-03-02T10:05:00;12.30;40.50
4840;DHT22;2434;48.486;7.964;2024-03-02T10:07:32;12.40;38.20
4840;DHT22;2434;48.486;7.964;2024-03-02T10:10:12;12.40;39.60
4840;DHT22;2434;48.486;7.964;2024-03-02T10:12:40;13.20;36.90
4840;DHT22;2434;48.486;7.964;2024-03-02T10:15:09;13.20;36.20
4840;DHT22;2434;48.486;7.964;2024-03-02T10:17:37;13.50;34.40
4840;DHT22;2434;48.486;7.964;2024-03-02T10:20:23;13.50;34.10
4840;DHT22;2434;48.486;7.964;2024-03-02T10:22:53;13.40;34.40
4840;DHT22;2434;48.486;7.964;2024-03-02T10:25:30;13.40;34.50
4840;DHT22;2434;48.486;7.964;2024-03-02T10:28:16;13.30;34.10
4840;DHT22;2434;48.486;7.964;2024-03-02T10:30:47;13.50;33.00
4840;DHT22;2434;48.486;7.964;2024-03-02T10:33:17;13.80;32.90
4840;DHT22;2434;48.486;7.964;2024-03-02T10:35:48;14.00;31.40
4840;DHT22;2434;48.486;7.964;2024-03-02T10:38:18;14.20;32.80
4840;DHT22;2434;48.486;7.964;2024-03-02T10:40:47;14.40;30.80
4840;DHT22;2434;48.486;7.964;2024-03-02T10:43:17;14.40;31.70
4840;DHT22;2434;48.486;7.964;2024-03-02T10:45:49;14.60;32.90
4840;DHT22;2434;48.486;7.964;2024-03-02T10:48:17;14.80;31.50
4840;DHT22;2434;48.486;7.964;2024-03-02T10:50:46;14.90;28.90
4840;DHT22;2434;48.486;7.964;2024-03-02T10:53:14;15.00;29.00
4840;DHT22;2434;48.486;7.964;2024-03-02T10:55:43;15.20;28.90
4840;DHT22;2434;48.486;7.964;2024-03-02T10:58:12;15.00;30.10
4840;DHT22;2434;48.486;7.964;2024-03-02T11:00:43;15.20;29.80
4840;DHT22;2434;48.486;7.964;2024-03-02T11:03:13;15.40;28.60
4840;DHT22;2434;48.486;7.964;2024-03-02T11:05:44;15.30;29.40
4840;DHT22;2434;48.486;7.964;2024-03-02T11:08:13;15.40;28.50
4840;DHT22;2434;48.486;7.964;2024-03-02T11:10:48;15.30;28.50
4840;DHT22;2434;48.486;7.964;2024-03-02T11:13:22;15.30;27.70
4840;DHT22;2434;48.486;7.964;2024-03-02T11:15:55;15.30;28.10
4840;DHT22;2434;48.486;7.964;2024-03-02T11:18:27;15.50;27.70
4840;DHT22;2434;48.486;7.964;2024-03-02T11:20:55;15.60;29.00
4840;DHT22;2434;48.486;7.964;2024-03-02T11:23:32;15.60;27.30
4840;DHT22;2434;48.486;7.964;2024-03-02T11:26:20;15.70;27.50
4840;DHT22;2434;48.486;7.964;2024-03-02T11:28:48;15.60;27.80
4840;DHT22;2434;48.486;7.964;2024-03-02T11:31:16;15.70;27.60
4840;DHT22;2434;48.486;7.964;2024-03-02T11:33:44;15.70;27.70
4840;DHT22;2434;48.486;7.964;2024-03-02T11:36:12;15.70;27.50
4840;DHT22;2434;48.486;7.964;2024-03-02T11:38:43;15.80;27.50
4840;DHT22;2434;48.486;7.964;2024-03-02T11:41:12;15.90;28.00
4840;DHT22;2434;48.486;7.964;2024-03-02T11:43:42;15.90;26.70
4840;DHT22;2434;48.486;7.964;2024-03-02T11:46:12;16.10;29.10
4840;DHT22;2434;48.486;7.964;2024-03-02T11:48:40;16.40;27.70
4840;DHT22;2434;48.486;7.964;2024-03-02T11:51:08;16.40;28.00
4840;DHT22;2434;48.486;7.964;2024-03-02T11:53:39;16.40;27.70
4840;DHT22;2434;48.486;7.964;2024-03-02T11:56:09;16.50;27.90
4840;DHT22;2434;48.486;7.964;2024-03-02T11:58:39;16.30;27.50
4840;DHT22;2434;48.486;7.964;2024-03-02T12:01:10;16.20;28.10
4840;DHT22;2434;48.486;7.964;2024-03-02T12:03:39;16.10;27.40
4840;DHT22;2434;48.486;7.964;2024-03-02T12:06:07;16.10;27.40
4840;DHT22;2434;48.486;7.964;2024-03-02T12:08:36;16.20;26.80
4840;DHT22;2434;48.486;7.964;2024-03-02T12:11:04;16.50;27.70
4840;DHT22;2434;48.486;7.964;2024-03-02T12:13:33;16.60;26.80
4840;DHT22;2434;48.486;7.964;2024-03-02T12:16:02;16.50;26.10
4840;DHT22;2434;48.486;7.964;2024-03-02T12:18:31;16.50;26.80
4840;DHT22;2434;48.486;7.964;2024-03-02T12:20:59;16.30;26.30
4840;DHT22;2434;48.486;7.964;2024-03-02T12:23:29;16.40;28.20
4840;DHT22;2434;48.486;7.964;2024-03-02T12:25:57;16.60;26.20
4840;DHT22;2434;48.486;7.964;2024-03-02T12:28:26;16.70;26.20
4840;DHT22;2434;48.486;7.964;2024-03-02T12:30:54;16.90;25.90
4840;DHT22;2434;48.486;7.964;2024-03-02T12:33:22;16.90;27.00
4840;DHT22;2434;48.486;7.964;2024-03-02T12:35:52;16.70;26.20
4840;DHT22;2434;48.486;7.964;2024-03-02T12:38:20;16.60;25.40
4840;DHT22;2434;48.486;7.964;2024-03-02T12:40:52;16.40;24.80
4840;DHT22;2434;48.486;7.964;2024-03-02T12:43:20;16.40;25.50
4840;DHT22;2434;48.486;7.964;2024-03-02T12:45:50;16.30;26.30
4840;DHT22;2434;48.486;7.964;2024-03-02T12:48:18;16.30;27.60
4840;DHT22;2434;48.486;7.964;2024-03-02T12:50:46;16.50;27.10
4840;DHT22;2434;48.486;7.964;2024-03-02T12:53:16;16.80;25.50
4840;DHT22;2434;48.486;7.964;2024-03-02T12:55:44;16.70;26.00
4840;DHT22;2434;48.486;7.964;2024-03-02T12:58:18;16.70;26.30
4840;DHT22;2434;48.486;7.964;2024-03-02T13:00:46;16.50;26.10
4840;DHT22;2434;48.486;7.964;2024-03-02T13:03:17;16.80;24.00
4840;DHT22;2434;48.486;7.964;2024-03-02T13:05:48;16.90;22.50
4840;DHT22;2434;48.486;7.964;2024-03-02T13:08:18;16.70;22.40
4840;DHT22;2434;48.486;7.964;2024-03-02T13:10:46;16.70;22.50
4840;DHT22;2434;48.486;7.964;2024-03-02T13:13:14;16.60;22.00
4840;DHT22;2434;48.486;7.964;2024-03-02T13:15:42;16.60;22.30
4840;DHT22;2434;48.486;7.964;2024-03-02T13:18:11;16.80;22.40
4840;DHT22;2434;48.486;7.964;2024-03-02T13:20:40;16.70;22.20
4840;DHT22;2434;48.486;7.964;2024-03-02T13:23:08;16.70;21.60
4840;DHT22;2434;48.486;7.964;2024-03-02T13:25:38;16.80;22.40
4840;DHT22;2434;48.486;7.964;2024-03-02T13:28:06;17.10;22.80
4840;DHT22;2434;48.486;7.964;2024-03-02T13:30:35;17.10;22.50
4840;DHT22;2434;48.486;7.964;2024-03-02T13:33:04;16.90;22.40
4840;DHT22;2434;48.486;7.964;2024-03-02T13:35:32;16.70;22.10
4840;DHT22;2434;48.486;7.964;2024-03-02T13:38:00;16.70;22.70
4840;DHT22;2434;48.486;7.964;2024-03-02T13:40:28;16.70;22.90
4840;DHT22;2434;48.486;7.964;2024-03-02T13:42:59;16.90;21.10
4840;DHT22;2434;48.486;7.964;2024-03-02T13:45:27;17.00;20.90
4840;DHT22;2434;48.486;7.964;2024-03-02T13:47:55;17.10;25.10
4840;DHT22;2434;48.486;7.964;2024-03-02T13:50:23;17.10;23.40
4840;DHT22;2434;48.486;7.964;2024-03-02T13:52:51;17.10;23.40
4840;DHT22;2434;48.486;7.964;2024-03-02T13:55:19;17.00;23.40
4840;DHT22;2434;48.486;7.964;2024-03-02T13:57:47;16.90;24.50
4840;DHT22;2434;48.486;7.964;2024-03-02T14:00:18;16.80;26.00
4840;DHT22;2434;48.486;7.964;2024-03-02T14:02:47;16.70;23.90
4840;DHT22;2434;48.486;7.964;2024-03-02T14:05:16;16.70;23.10
4840;DHT22;2434;48.486;7.964;2024-03-02T14:07:44;16.50;24.40
4840;DHT22;2434;48.486;7.964;2024-03-02T14:10:12;16.40;22.70
4840;DHT22;2434;48.486;7.964;2024-03-02T14:12:43;16.40;25.70
4840;DHT22;2434;48.486;7.964;2024-03-02T14:15:11;16.40;28.40
4840;DHT22;2434;48.486;7.964;2024-03-02T14:17:40;16.40;25.30
4840;DHT22;2434;48.486;7.964;2024-03-02T14:20:10;16.50;25.50
4840;DHT22;2434;48.486;7.964;2024-03-02T14:22:39;16.50;26.40
4840;DHT22;2434;48.486;7.964;2024-03-02T14:25:08;16.50;24.30
4840;DHT22;2434;48.486;7.964;2024-03-02T14:27:36;16.40;25.00
4840;DHT22;2434;48.486;7.964;2024-03-02T14:30:24;16.30;27.00
4840;DHT22;2434;48.486;7.964;2024-03-02T14:32:53;16.40;25.90
4840;DHT22;2434;48.486;7.964;2024-03-02T14:35:21;16.30;24.40
4840;DHT22;2434;48.486;7.964;2024-03-02T14:37:49;16.20;24.20
4840;DHT22;2434;48.486;7.964;2024-03-02T14:40:18;16.20;24.20
4840;DHT22;2434;48.486;7.964;2024-03-02T14:42:47;16.10;23.70
4840;DHT22;2434;48.486;7.964;2024-03-02T14:45:15;16.10;24.60
4840;DHT22;2434;48.486;7.964;2024-03-02T14:47:43;16.10;25.00
4840;DHT22;2434;48.486;7.964;2024-03-02T14:50:13;16.10;25.10
4840;DHT22;2434;48.486;7.964;2024-03-02T14:52:44;16.00;24.80
4840;DHT22;2434;48.486;7.964;2024-03-02T14:55:12;16.00;26.10
4840;DHT22;2434;48.486;7.964;2024-03-02T14:57:41;16.00;25.40
4840;DHT22;2434;48.486;7.964;2024-03-02T15:00:10;15.90;23.70
4840;DHT22;2434;48.486;7.964;2024-03-02T15:02:39;15.80;26.10
4840;DHT22;2434;48.486;7.964;2024-03-02T15:05:07;15.80;26.10
4840;DHT22;2434;48.486;7.964;2024-03-02T15:07:37;15.80;26.40
4840;DHT22;2434;48.486;7.964;2024-03-02T15:10:06;15.70;25.30
4840;DHT22;2434;48.486;7.964;2024-03-02T15:12:35;15.70;26.10
4840;DHT22;2434;48.486;7.964;2024-03-02T15:15:04;15.70;26.10
4840;DHT22;2434;48.486;7.964;2024-03-02T15:17:32;15.60;26.30
4840;DHT22;2434;48.486;7.964;2024-03-02T15:20:00;15.60;28.40
4840;DHT22;2434;48.486;7.964;2024-03-02T15:22:28;15.60;29.00
4840;DHT22;2434;48.486;7.964;2024-03-02T15:24:57;15.60;27.90
4840;DHT22;2434;48.486;7.964;2024-03-02T15:27:25;15.60;32.10
4840;DHT22;2434;48.486;7.964;2024-03-02T15:29:54;15.60;29.40
4840;DHT22;2434;48.486;7.964;2024-03-02T15:32:24;15.60;30.40
4840;DHT22;2434;48.486;7.964;2024-03-02T15:34:53;15.60;29.30
4840;DHT22;2434;48.486;7.964;2024-03-02T15:37:21;15.60;33.70
4840;DHT22;2434;48.486;7.964;2024-03-02T15:39:50;15.60;36.20
4840;DHT22;2434;48.486;7.964;2024-03-02T15:42:19;15.60;35.00
4840;DHT22;2434;48.486;7.964;2024-03-02T15:44:50;15.60;35.10
4840;DHT22;2434;48.486;7.964;2024-03-02T15:47:18;15.60;35.10
4840;DHT22;2434;48.486;7.964;2024-03-02T15:49:46;15.60;35.70
4840;DHT22;2434;48.486;7.964;2024-03-02T15:52:14;15.60;35.00
4840;DHT22;2434;48.486;7.964;2024-03-02T15:54:45;15.50;32.00
4840;DHT22;2434;48.486;7.964;2024-03-02T15:57:13;15.50;32.20
4840;DHT22;2434;48.486;7.964;2024-03-02T15:59:43;15.50;33.50
4840;DHT22;2434;48.486;7.964;2024-03-02T16:02:11;15.50;35.90
4840;DHT22;2434;48.486;7.964;2024-03-02T16:04:40;15.50;36.70
4840;DHT22;2434;48.486;7.964;2024-03-02T16:07:08;15.50;35.70
4840;DHT22;2434;48.486;7.964;2024-03-02T16:09:36;15.50;36.50
4840;DHT22;2434;48.486;7.964;2024-03-02T16:12:05;15.40;34.40
4840;DHT22;2434;48.486;7.964;2024-03-02T16:14:33;15.40;34.10
4840;DHT22;2434;48.486;7.964;2024-03-02T16:17:16;15.40;32.30
4840;DHT22;2434;48.486;7.964;2024-03-02T16:19:45;15.40;32.50
4840;DHT22;2434;48.486;7.964;2024-03-02T16:22:14;15.50;32.70
4840;DHT22;2434;48.486;7.964;2024-03-02T16:24:42;15.50;33.80